sensor_id;sensor_type;location;lat;lon;timestamp;temperature;humidity
7958;DHT22;4024;52.172;5.378;2023-05-02T00:01:20;14.20;99.90
7958;DHT22;4024;52.172;5.378;2023-05-02T00:03:46;14.20;99.90
7958;DHT22;4024;52.172;5.378;2023-05-02T00:06:12;14.20;99.90
7958;DHT22;4024;52.172;5.378;2023-05-02T00:08:37;14.20;99.90
7958;DHT22;4024;52.172;5.378;2023-05-02T00:11:03;14.20;99.90
7958;DHT22;4024;52.172;5.378;2023-05-02T00:13:29;14.20;99.90
7958;DHT22;4024;52.172;5.378;2023-05-02T00:15:55;14.20;99.90
7958;DHT22;4024;52.172;5.378;2023-05-02T00:18:20;14.20;99.90
7958;DHT22;4024;52.172;5.378;2023-05-02T00:20:46;14.20;99.90
7958;DHT22;4024;52.172;5.378;2023-05-02T00:23:12;14.20;99.90
7958;DHT22;4024;52.172;5.378;2023-05-02T00:25:43;14.10;99.90
7958;DHT22;4024;52.172;5.378;2023-05-02T00:28:10;14.20;99.90
7958;DHT22;4024;52.172;5.378;2023-05-02T00:30:35;14.20;99.90
7958;DHT22;4024;52.172;5.378;2023-05-02T00:33:01;14.10;99.90
7958;DHT22;4024;52.172;5.378;2023-05-02T00:35:27;14.10;99.90
7958;DHT22;4024;52.172;5.378;2023-05-02T00:37:52;14.10;99.90
7958;DHT22;4024;52.172;5.378;2023-05-02T00:40:18;14.10;99.90
7958;DHT22;4024;52.172;5.378;2023-05-02T00:42:44;14.10;99.90
7958;DHT22;4024;52.172;5.378;2023-05-02T00:45:09;14.10;99.90
7958;DHT22;4024;52.172;5.378;2023-05-02T00:47:36;14.10;99.90
7958;DHT22;4024;52.172;5.378;2023-05-02T00:50:02;14.10;99.90
7958;DHT22;4024;52.172;5.378;2023-05-02T00:52:30;14.10;99.90
7958;DHT22;4024;52.172;5.378;2023-05-02T00:54:56;14.10;99.90
7958;DHT22;4024;52.172;5.378;2023-05-02T00:57:21;14.10;99.90
7958;DHT22;4024;52.172;5.378;2023-05-02T00:59:47;14.10;99.90
7958;DHT22;4024;52.172;5.378;2023-05-02T01:02:54;14.10;99.90
7958;DHT22;4024;52.172;5.378;2023-05-02T01:05:43;14.00;99.90
7958;DHT22;4024;52.172;5.378;2023-05-02T01:08:23;14.00;99.90
7958;DHT22;4024;52.172;5.378;2023-05-02T01:11:02;14.10;99.90
7958;DHT22;4024;52.172;5.378;2023-05-02T01:13:33;14.10;99.90
7958;DHT22;4024;52.172;5.378;2023-05-02T01:16:01;14.00;99.90
7958;DHT22;4024;52.172;5.378;2023-05-02T01:18:31;13.90;99.90
7958;DHT22;4024;52.172;5.378;2023-05-02T01:21:00;13.90;99.90
7958;DHT22;4024;52.172;5.378;2023-05-02T01:23:51;13.80;99.90
7958;DHT22;4024;52.172;5.378;2023-05-02T01:26:31;13.80;99.90
7958;DHT22;4024;52.172;5.378;2023-05-02T01:29:04;13.80;99.90
7958;DHT22;4024;52.172;5.378;2023-05-02T01:31:42;13.80;99.90
7958;DHT22;4024;52.172;5.378;2023-05-02T01:34:09;13.70;99.90
7958;DHT22;4024;52.172;5.378;2023-05-02T01:36:37;13.70;99.90
7958;DHT22;4024;52.172;5.378;2023-05-02T01:39:08;13.60;99.90
7958;DHT22;4024;52.172;5.378;2023-05-02T01:41:35;13.60;99.90
7958;DHT22;4024;52.172;5.378;2023-05-02T01:44:02;13.50;99.90
7958;DHT22;4024;52.172;5.378;2023-05-02T01:46:35;13.60;99.90
7958;DHT22;4024;52.172;5.378;2023-05-02T01:49:02;13.50;99.90
7958;DHT22;4024;52.172;5.378;2023-05-02T01:51:32;13.50;99.90
7958;DHT22;4024;52.172;5.378;2023-05-02T01:54:00;13.50;99.90
7958;DHT22;4024;52.172;5.378;2023-05-02T01:56:31;13.40;99.90
7958;DHT22;4024;52.172;5.378;2023-05-02T01:58:58;13.40;99.90
7958;DHT22;4024;52.172;5.378;2023-05-02T02:01:26;13.40;99.90
7958;DHT22;4024;52.172;5.378;2023-05-02T02:03:56;13.40;99.90
7958;DHT22;4024;52.172;5.378;2023-05-02T02:06:23;13.40;99.90
7958;DHT22;4024;52.172;5.378;2023-05-02T02:08:49;13.30;99.90
7958;DHT22;4024;52.172;5.378;2023-05-02T02:11:19;13.30;99.90
7958;DHT22;4024;52.172;5.378;2023-05-02T02:13:48;13.30;99.90
7958;DHT22;4024;52.172;5.378;2023-05-02T02:16:23;13.30;99.90
7958;DHT22;4024;52.172;5.378;2023-05-02T02:18:49;13.30;99.90
7958;DHT22;4024;52.172;5.378;2023-05-02T02:21:19;13.30;99.90
7958;DHT22;4024;52.172;5.378;2023-05-02T02:23:47;13.30;99.90
7958;DHT22;4024;52.172;5.378;2023-05-02T02:26:17;13.30;99.90
7958;DHT22;4024;52.172;5.378;2023-05-02T02:28:45;13.20;99.90
7958;DHT22;4024;52.172;5.378;2023-05-02T02:31:11;13.20;99.90
7958;DHT22;4024;52.172;5.378;2023-05-02T02:33:37;13.20;99.90
7958;DHT22;4024;52.172;5.378;2023-05-02T02:36:33;13.20;99.90
7958;DHT22;4024;52.172;5.378;2023-05-02T02:42:11;13.10;99.90
7958;DHT22;4024;52.172;5.378;2023-05-02T02:44:54;13.20;99.90
7958;DHT22;4024;52.172;5.378;2023-05-02T02:47:30;13.10;99.90
7958;DHT22;4024;52.172;5.378;2023-05-02T02:53:07;13.10;99.90
7958;DHT22;4024;52.172;5.378;2023-05-02T02:55:46;13.10;99.90
7958;DHT22;4024;52.172;5.378;2023-05-02T03:00:42;13.10;99.90
7958;DHT22;4024;52.172;5.378;2023-05-02T03:03:10;13.10;99.90
7958;DHT22;4024;52.172;5.378;2023-05-02T03:05:38;13.10;99.90
7958;DHT22;4024;52.172;5.378;2023-05-02T03:08:04;13.10;99.90
7958;DHT22;4024;52.172;5.378;2023-05-02T03:10:29;13.10;99.90
7958;DHT22;4024;52.172;5.378;2023-05-02T03:12:56;13.00;99.90
7958;DHT22;4024;52.172;5.378;2023-05-02T03:18:14;13.00;99.90
7958;DHT22;4024;52.172;5.378;2023-05-02T03:20:40;13.10;99.90
7958;DHT22;4024;52.172;5.378;2023-05-02T03:23:06;13.00;99.90
7958;DHT22;4024;52.172;5.378;2023-05-02T03:25:31;13.10;99.90
7958;DHT22;4024;52.172;5.378;2023-05-02T03:27:57;13.00;99.90
7958;DHT22;4024;52.172;5.378;2023-05-02T03:30:23;13.00;99.90
7958;DHT22;4024;52.172;5.378;2023-05-02T03:32:48;13.00;99.90
7958;DHT22;4024;52.172;5.378;2023-05-02T03:35:15;13.00;99.90
7958;DHT22;4024;52.172;5.378;2023-05-02T03:37:41;13.00;99.90
7958;DHT22;4024;52.172;5.378;2023-05-02T03:40:07;13.00;99.90
7958;DHT22;4024;52.172;5.378;2023-05-02T03:42:35;13.00;99.90
7958;DHT22;4024;52.172;5.378;2023-05-02T03:45:07;13.00;99.90
7958;DHT22;4024;52.172;5.378;2023-05-02T03:47:33;12.90;99.90
7958;DHT22;4024;52.172;5.378;2023-05-02T03:49:59;12.90;99.90
7958;DHT22;4024;52.172;5.378;2023-05-02T03:52:25;12.90;99.90
7958;DHT22;4024;52.172;5.378;2023-05-02T03:54:51;12.90;99.90
7958;DHT22;4024;52.172;5.378;2023-05-02T03:57:17;12.90;99.90
7958;DHT22;4024;52.172;5.378;2023-05-02T03:59:43;12.90;99.90
7958;DHT22;4024;52.172;5.378;2023-05-02T04:02:10;12.80;99.90
7958;DHT22;4024;52.172;5.378;2023-05-02T04:04:36;12.80;99.90
7958;DHT22;4024;52.172;5.378;2023-05-02T04:07:03;12.80;99.90
7958;DHT22;4024;52.172;5.378;2023-05-02T04:09:29;12.80;99.90
7958;DHT22;4024;52.172;5.378;2023-05-02T04:11:55;12.70;99.90
7958;DHT22;4024;52.172;5.378;2023-05-02T04:14:21;12.70;99.90
7958;DHT22;4024;52.172;5.378;2023-05-02T04:16:48;12.70;99.90
7958;DHT22;4024;52.172;5.378;2023-05-02T04:19:14;12.60;99.90
7958;DHT22;4024;52.172;5.378;2023-05-02T04:21:41;12.60;99.90
7958;DHT22;4024;52.172;5.378;2023-05-02T04:24:07;12.60;99.90
7958;DHT22;4024;52.172;5.378;2023-05-02T04:26:33;12.50;99.90
7958;DHT22;4024;52.172;5.378;2023-05-02T04:28:58;12.50;99.90
7958;DHT22;4024;52.172;5.378;2023-05-02T04:31:25;12.50;99.90
7958;DHT22;4024;52.172;5.378;2023-05-02T04:33:51;12.50;99.90
7958;DHT22;4024;52.172;5.378;2023-05-02T04:36:16;12.50;99.90
7958;DHT22;4024;52.172;5.378;2023-05-02T04:38:43;12.40;99.90
7958;DHT22;4024;52.172;5.378;2023-05-02T04:41:09;12.40;99.90
7958;DHT22;4024;52.172;5.378;2023-05-02T04:43:35;12.30;99.90
7958;DHT22;4024;52.172;5.378;2023-05-02T04:46:00;12.30;99.90
7958;DHT22;4024;52.172;5.378;2023-05-02T04:48:26;12.30;99.90
7958;DHT22;4024;52.172;5.378;2023-05-02T04:50:52;12.30;99.90
7958;DHT22;4024;52.172;5.378;2023-05-02T04:53:20;12.30;99.90
7958;DHT22;4024;52.172;5.378;2023-05-02T04:55:45;12.30;99.90
7958;DHT22;4024;52.172;5.378;2023-05-02T04:58:11;12.20;99.90
7958;DHT22;4024;52.172;5.378;2023-05-02T05:00:37;12.20;99.90
7958;DHT22;4024;52.172;5.378;2023-05-02T05:03:03;12.20;99.90
7958;DHT22;4024;52.172;5.378;2023-05-02T05:05:28;12.20;99.90
7958;DHT22;4024;52.172;5.378;2023-05-02T05:07:54;12.20;99.90
7958;DHT22;4024;52.172;5.378;2023-05-02T05:10:20;12.20;99.90
7958;DHT22;4024;52.172;5.378;2023-05-02T05:12:45;12.20;99.90
7958;DHT22;4024;52.172;5.378;2023-05-02T05:15:11;12.20;99.90
7958;DHT22;4024;52.172;5.378;2023-05-02T05:17:37;12.20;99.90
7958;DHT22;4024;52.172;5.378;2023-05-02T05:20:02;12.20;99.90
7958;DHT22;4024;52.172;5.378;2023-05-02T05:22:28;12.20;99.90
7958;DHT22;4024;52.172;5.378;2023-05-02T05:24:54;12.20;99.90
7958;DHT22;4024;52.172;5.378;2023-05-02T05:27:20;12.30;99.90
7958;DHT22;4024;52.172;5.378;2023-05-02T05:29:46;12.30;99.90
7958;DHT22;4024;52.172;5.378;2023-05-02T05:32:12;12.30;99.90
7958;DHT22;4024;52.172;5.378;2023-05-02T05:34:37;12.20;99.90
7958;DHT22;4024;52.172;5.378;2023-05-02T05:37:03;12.20;99.90
7958;DHT22;4024;52.172;5.378;2023-05-02T05:39:29;12.20;99.90
7958;DHT22;4024;52.172;5.378;2023-05-02T05:41:55;12.20;99.90
7958;DHT22;4024;52.172;5.378;2023-05-02T05:44:22;12.20;99.90
7958;DHT22;4024;52.172;5.378;2023-05-02T05:46:47;12.10;99.90
7958;DHT22;4024;52.172;5.378;2023-05-02T05:49:15;12.10;99.90
7958;DHT22;4024;52.172;5.378;2023-05-02T05:51:40;12.10;99.90
7958;DHT22;4024;52.172;5.378;2023-05-02T05:54:06;12.00;99.90
7958;DHT22;4024;52.172;5.378;2023-05-02T05:56:32;12.00;99.90
7958;DHT22;4024;52.172;5.378;2023-05-02T05:58:57;12.00;99.90
7958;DHT22;4024;52.172;5.378;2023-05-02T06:01:23;12.00;99.90
7958;DHT22;4024;52.172;5.378;2023-05-02T06:03:48;12.00;99.90
7958;DHT22;4024;52.172;5.378;2023-05-02T06:06:14;12.00;99.90
7958;DHT22;4024;52.172;5.378;2023-05-02T06:08:41;12.00;99.90
7958;DHT22;4024;52.172;5.378;2023-05-02T06:11:09;12.10;99.90
7958;DHT22;4024;52.172;5.378;2023-05-02T06:13:36;12.10;99.90
7958;DHT22;4024;52.172;5.378;2023-05-02T06:16:02;12.20;99.90
7958;DHT22;4024;52.172;5.378;2023-05-02T06:18:28;12.20;99.90
7958;DHT22;4024;52.172;5.378;2023-05-02T06:20:54;12.20;99.90
7958;DHT22;4024;52.172;5.378;2023-05-02T06:23:19;12.20;99.90
7958;DHT22;4024;52.172;5.378;2023-05-02T06:25:45;12.30;99.90
7958;DHT22;4024;52.172;5.378;2023-05-02T06:28:11;12.30;99.90
7958;DHT22;4024;52.172;5.378;2023-05-02T06:30:36;12.40;99.90
7958;DHT22;4024;52.172;5.378;2023-05-02T06:33:05;12.50;99.90
7958;DHT22;4024;52.172;5.378;2023-05-02T06:35:30;12.50;99.90
7958;DHT22;4024;52.172;5.378;2023-05-02T06:37:56;12.60;99.90
7958;DHT22;4024;52.172;5.378;2023-05-02T06:40:21;12.70;99.90
7958;DHT22;4024;52.172;5.378;2023-05-02T06:42:47;12.70;99.90
7958;DHT22;4024;52.172;5.378;2023-05-02T06:45:13;12.70;99.90
7958;DHT22;4024;52.172;5.378;2023-05-02T06:47:38;12.70;99.90
7958;DHT22;4024;52.172;5.378;2023-05-02T06:50:04;12.70;99.90
7958;DHT22;4024;52.172;5.378;2023-05-02T06:52:30;12.70;99.90
7958;DHT22;4024;52.172;5.378;2023-05-02T06:54:56;12.70;99.90
7958;DHT22;4024;52.172;5.378;2023-05-02T06:57:23;12.60;99.90
7958;DHT22;4024;52.172;5.378;2023-05-02T06:59:49;12.60;99.90
7958;DHT22;4024;52.172;5.378;2023-05-02T07:02:14;12.60;99.90
7958;DHT22;4024;52.172;5.378;2023-05-02T07:04:41;12.60;99.90
7958;DHT22;4024;52.172;5.378;2023-05-02T07:07:07;12.60;99.90
7958;DHT22;4024;52.172;5.378;2023-05-02T07:09:32;12.60;99.90
7958;DHT22;4024;52.172;5.378;2023-05-02T07:11:58;12.60;99.90
7958;DHT22;4024;52.172;5.378;2023-05-02T07:14:24;12.60;99.90
7958;DHT22;4024;52.172;5.378;2023-05-02T07:16:49;12.60;99.90
7958;DHT22;4024;52.172;5.378;2023-05-02T07:19:15;12.70;99.90
7958;DHT22;4024;52.172;5.378;2023-05-02T07:21:41;12.60;99.90
7958;DHT22;4024;52.172;5.378;2023-05-02T07:24:06;12.60;99.90
7958;DHT22;4024;52.172;5.378;2023-05-02T07:26:32;12.60;99.90
7958;DHT22;4024;52.172;5.378;2023-05-02T07:28:57;12.60;99.90
7958;DHT22;4024;52.172;5.378;2023-05-02T07:31:23;12.60;99.90
7958;DHT22;4024;52.172;5.378;2023-05-02T07:33:48;12.60;99.90
7958;DHT22;4024;52.172;5.378;2023-05-02T07:36:14;12.60;99.90
7958;DHT22;4024;52.172;5.378;2023-05-02T07:38:40;12.60;99.90
7958;DHT22;4024;52.172;5.378;2023-05-02T07:41:05;12.70;99.90
7958;DHT22;4024;52.172;5.378;2023-05-02T07:43:31;12.70;99.90
7958;DHT22;4024;52.172;5.378;2023-05-02T07:45:57;12.70;99.90
7958;DHT22;4024;52.172;5.378;2023-05-02T07:48:22;12.70;99.90
7958;DHT22;4024;52.172;5.378;2023-05-02T07:50:48;12.70;99.90
7958;DHT22;4024;52.172;5.378;2023-05-02T07:53:14;12.70;99.90
7958;DHT22;4024;52.172;5.378;2023-05-02T07:55:39;12.80;99.90
7958;DHT22;4024;52.172;5.378;2023-05-02T07:58:07;12.80;99.90
7958;DHT22;4024;52.172;5.378;2023-05-02T08:00:32;12.80;99.90
7958;DHT22;4024;52.172;5.378;2023-05-02T08:02:58;12.90;99.90
7958;DHT22;4024;52.172;5.378;2023-05-02T08:05:24;12.90;99.90
7958;DHT22;4024;52.172;5.378;2023-05-02T08:07:49;12.90;99.90
7958;DHT22;4024;52.172;5.378;2023-05-02T08:10:15;12.90;99.90
7958;DHT22;4024;52.172;5.378;2023-05-02T08:12:41;12.90;99.90
7958;DHT22;4024;52.172;5.378;2023-05-02T08:15:08;12.90;99.90
7958;DHT22;4024;52.172;5.378;2023-05-02T08:17:34;12.90;99.90
7958;DHT22;4024;52.172;5.378;2023-05-02T08:20:00;12.90;99.90
7958;DHT22;4024;52.172;5.378;2023-05-02T08:22:25;12.90;99.90
7958;DHT22;4024;52.172;5.378;2023-05-02T08:24:51;12.90;99.90
7958;DHT22;4024;52.172;5.378;2023-05-02T08:27:17;13.00;99.90
7958;DHT22;4024;52.172;5.378;2023-05-02T08:29:42;13.10;99.90
7958;DHT22;4024;52.172;5.378;2023-05-02T08:32:08;13.10;99.90
7958;DHT22;4024;52.172;5.378;2023-05-02T08:34:33;13.10;99.90
7958;DHT22;4024;52.172;5.378;2023-05-02T08:36:59;13.20;99.90
7958;DHT22;4024;52.172;5.378;2023-05-02T08:39:25;13.20;99.90
7958;DHT22;4024;52.172;5.378;2023-05-02T08:41:50;13.20;99.90
7958;DHT22;4024;52.172;5.378;2023-05-02T08:44:16;13.30;99.90
7958;DHT22;4024;52.172;5.378;2023-05-02T08:46:42;13.40;99.90
7958;DHT22;4024;52.172;5.378;2023-05-02T08:49:10;13.50;99.90
7958;DHT22;4024;52.172;5.378;2023-05-02T08:51:37;13.50;99.90
7958;DHT22;4024;52.172;5.378;2023-05-02T08:54:03;13.70;99.90
7958;DHT22;4024;52.172;5.378;2023-05-02T08:56:31;13.70;99.90
7958;DHT22;4024;52.172;5.378;2023-05-02T08:58:57;13.80;99.90
7958;DHT22;4024;52.172;5.378;2023-05-02T09:01:23;13.90;99.90
7958;DHT22;4024;52.172;5.378;2023-05-02T09:03:52;14.10;99.90
7958;DHT22;4024;52.172;5.378;2023-05-02T09:06:21;14.00;99.90
7958;DHT22;4024;52.172;5.378;2023-05-02T09:08:48;14.10;99.90
7958;DHT22;4024;52.172;5.378;2023-05-02T09:11:15;14.20;99.90
7958;DHT22;4024;52.172;5.378;2023-05-02T09:13:46;14.20;99.90
7958;DHT22;4024;52.172;5.378;2023-05-02T09:16:16;14.20;99.90
7958;DHT22;4024;52.172;5.378;2023-05-02T09:18:47;14.30;99.90
7958;DHT22;4024;52.172;5.378;2023-05-02T09:21:18;14.30;99.90
7958;DHT22;4024;52.172;5.378;2023-05-02T09:23:50;14.40;99.90
7958;DHT22;4024;52.172;5.378;2023-05-02T09:26:24;14.60;99.90
7958;DHT22;4024;52.172;5.378;2023-05-02T09:28:57;14.60;99.90
7958;DHT22;4024;52.172;5.378;2023-05-02T09:31:24;14.70;99.90
7958;DHT22;4024;52.172;5.378;2023-05-02T09:33:51;14.80;99.90
7958;DHT22;4024;52.172;5.378;2023-05-02T09:36:18;14.80;99.90
7958;DHT22;4024;52.172;5.378;2023-05-02T09:38:47;14.80;99.90
7958;DHT22;4024;52.172;5.378;2023-05-02T09:41:13;14.90;99.90
7958;DHT22;4024;52.172;5.378;2023-05-02T09:43:39;14.90;99.90
7958;DHT22;4024;52.172;5.378;2023-05-02T09:46:09;15.00;98.90
7958;DHT22;4024;52.172;5.378;2023-05-02T09:48:56;15.00;99.70
7958;DHT22;4024;52.172;5.378;2023-05-02T09:51:23;15.00;99.80
7958;DHT22;4024;52.172;5.378;2023-05-02T09:53:49;15.10;99.70
7958;DHT22;4024;52.172;5.378;2023-05-02T09:56:15;15.00;98.40
7958;DHT22;4024;52.172;5.378;2023-05-02T09:58:41;15.10;98.40
7958;DHT22;4024;52.172;5.378;2023-05-02T10:01:07;14.90;98.00
7958;DHT22;4024;52.172;5.378;2023-05-02T10:03:36;14.90;98.80
7958;DHT22;4024;52.172;5.378;2023-05-02T10:06:03;14.90;98.60
7958;DHT22;4024;52.172;5.378;2023-05-02T10:08:33;14.90;98.50
7958;DHT22;4024;52.172;5.378;2023-05-02T10:11:04;14.90;98.50
7958;DHT22;4024;52.172;5.378;2023-05-02T10:13:31;14.90;98.50
7958;DHT22;4024;52.172;5.378;2023-05-02T10:16:03;14.90;98.70
7958;DHT22;4024;52.172;5.378;2023-05-02T10:21:10;15.00;98.80
7958;DHT22;4024;52.172;5.378;2023-05-02T10:23:40;15.00;98.10
7958;DHT22;4024;52.172;5.378;2023-05-02T10:26:07;15.00;98.30
7958;DHT22;4024;52.172;5.378;2023-05-02T10:28:33;15.00;98.40
7958;DHT22;4024;52.172;5.378;2023-05-02T10:31:00;15.10;97.00
7958;DHT22;4024;52.172;5.378;2023-05-02T10:33:27;15.10;96.50
7958;DHT22;4024;52.172;5.378;2023-05-02T10:35:56;15.10;97.50
7958;DHT22;4024;52.172;5.378;2023-05-02T10:38:22;15.10;96.40
7958;DHT22;4024;52.172;5.378;2023-05-02T10:40:54;15.10;96.70
7958;DHT22;4024;52.172;5.378;2023-05-02T10:43:29;15.00;96.30
7958;DHT22;4024;52.172;5.378;2023-05-02T10:45:55;15.10;97.10
7958;DHT22;4024;52.172;5.378;2023-05-02T10:48:23;15.10;97.20
7958;DHT22;4024;52.172;5.378;2023-05-02T10:50:56;15.20;96.80
7958;DHT22;4024;52.172;5.378;2023-05-02T10:53:27;15.40;97.00
7958;DHT22;4024;52.172;5.378;2023-05-02T10:56:16;15.50;96.60
7958;DHT22;4024;52.172;5.378;2023-05-02T10:58:46;15.50;97.10
7958;DHT22;4024;52.172;5.378;2023-05-02T11:04:04;15.60;96.30
7958;DHT22;4024;52.172;5.378;2023-05-02T11:06:35;15.50;95.10
7958;DHT22;4024;52.172;5.378;2023-05-02T11:11:48;15.40;95.30
7958;DHT22;4024;52.172;5.378;2023-05-02T11:19:31;15.40;94.60
7958;DHT22;4024;52.172;5.378;2023-05-02T11:24:53;15.40;95.30
7958;DHT22;4024;52.172;5.378;2023-05-02T11:30:02;15.50;95.10
7958;DHT22;4024;52.172;5.378;2023-05-02T11:35:25;15.50;95.40
7958;DHT22;4024;52.172;5.378;2023-05-02T11:40:24;15.60;95.40
7958;DHT22;4024;52.172;5.378;2023-05-02T11:42:50;15.60;95.30
7958;DHT22;4024;52.172;5.378;2023-05-02T11:45:16;15.60;95.70
7958;DHT22;4024;52.172;5.378;2023-05-02T11:47:43;15.70;94.50
7958;DHT22;4024;52.172;5.378;2023-05-02T11:50:11;15.70;94.60
7958;DHT22;4024;52.172;5.378;2023-05-02T11:52:40;15.60;93.90
7958;DHT22;4024;52.172;5.378;2023-05-02T11:55:07;15.60;94.10
7958;DHT22;4024;52.172;5.378;2023-05-02T11:57:35;15.70;93.90
7958;DHT22;4024;52.172;5.378;2023-05-02T12:00:01;15.70;94.50
7958;DHT22;4024;52.172;5.378;2023-05-02T12:02:36;15.70;94.20
7958;DHT22;4024;52.172;5.378;2023-05-02T12:05:02;15.70;94.50
7958;DHT22;4024;52.172;5.378;2023-05-02T12:07:43;15.80;92.80
7958;DHT22;4024;52.172;5.378;2023-05-02T12:10:10;15.80;93.30
7958;DHT22;4024;52.172;5.378;2023-05-02T12:12:36;15.80;94.20
7958;DHT22;4024;52.172;5.378;2023-05-02T12:15:04;15.70;93.40
7958;DHT22;4024;52.172;5.378;2023-05-02T12:17:30;15.70;93.10
7958;DHT22;4024;52.172;5.378;2023-05-02T12:19:57;15.80;92.60
7958;DHT22;4024;52.172;5.378;2023-05-02T12:22:24;15.60;92.60
7958;DHT22;4024;52.172;5.378;2023-05-02T12:24:50;15.50;92.60
7958;DHT22;4024;52.172;5.378;2023-05-02T12:27:18;15.40;92.70
7958;DHT22;4024;52.172;5.378;2023-05-02T12:29:47;15.40;93.60
7958;DHT22;4024;52.172;5.378;2023-05-02T12:32:14;15.30;93.00
7958;DHT22;4024;52.172;5.378;2023-05-02T12:34:41;15.30;93.40
7958;DHT22;4024;52.172;5.378;2023-05-02T12:37:07;15.30;92.40
7958;DHT22;4024;52.172;5.378;2023-05-02T12:39:42;15.20;92.80
7958;DHT22;4024;52.172;5.378;2023-05-02T12:42:12;15.30;92.90
7958;DHT22;4024;52.172;5.378;2023-05-02T12:44:40;15.30;93.40
7958;DHT22;4024;52.172;5.378;2023-05-02T12:47:06;15.30;93.50
7958;DHT22;4024;52.172;5.378;2023-05-02T12:49:32;15.20;93.80
7958;DHT22;4024;52.172;5.378;2023-05-02T12:52:12;15.30;93.90
7958;DHT22;4024;52.172;5.378;2023-05-02T12:54:37;15.30;93.60
7958;DHT22;4024;52.172;5.378;2023-05-02T12:57:03;15.30;93.30
7958;DHT22;4024;52.172;5.378;2023-05-02T12:59:30;15.30;93.30
7958;DHT22;4024;52.172;5.378;2023-05-02T13:01:56;15.30;93.00
7958;DHT22;4024;52.172;5.378;2023-05-02T13:04:36;15.30;93.20
7958;DHT22;4024;52.172;5.378;2023-05-02T13:07:04;15.40;93.90
7958;DHT22;4024;52.172;5.378;2023-05-02T13:09:29;15.40;94.10
7958;DHT22;4024;52.172;5.378;2023-05-02T13:11:55;15.40;94.00
7958;DHT22;4024;52.172;5.378;2023-05-02T13:14:23;15.50;94.20
7958;DHT22;4024;52.172;5.378;2023-05-02T13:16:49;15.50;93.00
7958;DHT22;4024;52.172;5.378;2023-05-02T13:19:18;15.50;92.40
7958;DHT22;4024;52.172;5.378;2023-05-02T13:21:43;15.50;92.50
7958;DHT22;4024;52.172;5.378;2023-05-02T13:24:09;15.60;92.90
7958;DHT22;4024;52.172;5.378;2023-05-02T13:26:35;15.60;93.40
7958;DHT22;4024;52.172;5.378;2023-05-02T13:29:00;15.60;92.90
7958;DHT22;4024;52.172;5.378;2023-05-02T13:31:26;15.70;93.00
7958;DHT22;4024;52.172;5.378;2023-05-02T13:33:51;15.60;92.80
7958;DHT22;4024;52.172;5.378;2023-05-02T13:36:17;15.70;92.70
7958;DHT22;4024;52.172;5.378;2023-05-02T13:38:43;15.70;92.70
7958;DHT22;4024;52.172;5.378;2023-05-02T13:41:09;15.70;92.10
7958;DHT22;4024;52.172;5.378;2023-05-02T13:43:34;15.70;92.80
7958;DHT22;4024;52.172;5.378;2023-05-02T13:46:00;15.70;93.00
7958;DHT22;4024;52.172;5.378;2023-05-02T13:48:26;15.80;92.80
7958;DHT22;4024;52.172;5.378;2023-05-02T13:50:51;15.80;92.80
7958;DHT22;4024;52.172;5.378;2023-05-02T13:53:17;15.80;92.40
7958;DHT22;4024;52.172;5.378;2023-05-02T13:55:42;15.80;92.60
7958;DHT22;4024;52.172;5.378;2023-05-02T13:58:08;15.90;92.50
7958;DHT22;4024;52.172;5.378;2023-05-02T14:00:33;15.80;92.70
7958;DHT22;4024;52.172;5.378;2023-05-02T14:02:59;15.70;92.90
7958;DHT22;4024;52.172;5.378;2023-05-02T14:05:25;15.80;92.80
7958;DHT22;4024;52.172;5.378;2023-05-02T14:07:50;15.80;93.40
7958;DHT22;4024;52.172;5.378;2023-05-02T14:10:16;15.80;92.90
7958;DHT22;4024;52.172;5.378;2023-05-02T14:12:42;15.80;92.80
7958;DHT22;4024;52.172;5.378;2023-05-02T14:15:07;15.70;92.30
7958;DHT22;4024;52.172;5.378;2023-05-02T14:17:33;15.70;91.40
7958;DHT22;4024;52.172;5.378;2023-05-02T14:19:59;15.70;91.70
7958;DHT22;4024;52.172;5.378;2023-05-02T14:22:24;15.70;92.40
7958;DHT22;4024;52.172;5.378;2023-05-02T14:24:50;15.60;93.00
7958;DHT22;4024;52.172;5.378;2023-05-02T14:27:16;15.70;93.80
7958;DHT22;4024;52.172;5.378;2023-05-02T14:29:45;15.80;93.10
7958;DHT22;4024;52.172;5.378;2023-05-02T14:32:11;15.80;93.30
7958;DHT22;4024;52.172;5.378;2023-05-02T14:34:36;15.80;92.60
7958;DHT22;4024;52.172;5.378;2023-05-02T14:37:03;15.80;92.70
7958;DHT22;4024;52.172;5.378;2023-05-02T14:39:29;15.80;92.50
7958;DHT22;4024;52.172;5.378;2023-05-02T14:41:55;15.80;93.20
7958;DHT22;4024;52.172;5.378;2023-05-02T14:44:20;15.80;91.80
7958;DHT22;4024;52.172;5.378;2023-05-02T14:46:46;15.70;91.60
7958;DHT22;4024;52.172;5.378;2023-05-02T14:49:12;15.70;91.80
7958;DHT22;4024;52.172;5.378;2023-05-02T14:51:37;15.80;92.90
7958;DHT22;4024;52.172;5.378;2023-05-02T14:54:04;15.80;92.20
7958;DHT22;4024;52.172;5.378;2023-05-02T14:56:30;15.70;90.50
7958;DHT22;4024;52.172;5.378;2023-05-02T14:58:55;15.70;91.30
7958;DHT22;4024;52.172;5.378;2023-05-02T15:01:22;15.60;91.70
7958;DHT22;4024;52.172;5.378;2023-05-02T15:03:48;15.70;92.00
7958;DHT22;4024;52.172;5.378;2023-05-02T15:06:15;15.60;91.60
7958;DHT22;4024;52.172;5.378;2023-05-02T15:08:41;15.70;92.00
7958;DHT22;4024;52.172;5.378;2023-05-02T15:11:08;15.60;92.20
7958;DHT22;4024;52.172;5.378;2023-05-02T15:13:35;15.70;92.30
7958;DHT22;4024;52.172;5.378;2023-05-02T15:16:01;15.70;92.40
7958;DHT22;4024;52.172;5.378;2023-05-02T15:18:27;15.70;91.70
7958;DHT22;4024;52.172;5.378;2023-05-02T15:20:52;15.70;90.90
7958;DHT22;4024;52.172;5.378;2023-05-02T15:23:18;15.70;91.20
7958;DHT22;4024;52.172;5.378;2023-05-02T15:25:43;15.80;91.00
7958;DHT22;4024;52.172;5.378;2023-05-02T15:28:09;15.70;91.70
7958;DHT22;4024;52.172;5.378;2023-05-02T15:30:35;15.80;92.10
7958;DHT22;4024;52.172;5.378;2023-05-02T15:33:01;15.90;92.30
7958;DHT22;4024;52.172;5.378;2023-05-02T15:35:27;15.90;92.20
7958;DHT22;4024;52.172;5.378;2023-05-02T15:37:54;15.90;91.60
7958;DHT22;4024;52.172;5.378;2023-05-02T15:40:20;16.00;91.80
7958;DHT22;4024;52.172;5.378;2023-05-02T15:42:47;16.00;90.90
7958;DHT22;4024;52.172;5.378;2023-05-02T15:45:13;16.00;90.60
7958;DHT22;4024;52.172;5.378;2023-05-02T15:47:39;15.90;90.90
7958;DHT22;4024;52.172;5.378;2023-05-02T15:50:05;15.90;91.40
7958;DHT22;4024;52.172;5.378;2023-05-02T15:52:31;15.90;91.00
7958;DHT22;4024;52.172;5.378;2023-05-02T15:54:57;15.80;91.10
7958;DHT22;4024;52.172;5.378;2023-05-02T15:57:23;15.90;91.00
7958;DHT22;4024;52.172;5.378;2023-05-02T15:59:50;15.90;91.60
7958;DHT22;4024;52.172;5.378;2023-05-02T16:02:16;15.90;91.80
7958;DHT22;4024;52.172;5.378;2023-05-02T16:04:42;16.00;91.80
7958;DHT22;4024;52.172;5.378;2023-05-02T16:07:08;16.00;91.80
7958;DHT22;4024;52.172;5.378;2023-05-02T16:09:34;16.00;90.90
7958;DHT22;4024;52.172;5.378;2023-05-02T16:12:00;16.00;90.90
7958;DHT22;4024;52.172;5.378;2023-05-02T16:14:27;16.00;91.20
7958;DHT22;4024;52.172;5.378;2023-05-02T16:16:53;16.00;91.40
7958;DHT22;4024;52.172;5.378;2023-05-02T16:19:20;16.00;90.90
7958;DHT22;4024;52.172;5.378;2023-05-02T16:21:46;16.00;90.20
7958;DHT22;4024;52.172;5.378;2023-05-02T16:24:11;16.00;90.20
7958;DHT22;4024;52.172;5.378;2023-05-02T16:26:37;15.90;90.20
7958;DHT22;4024;52.172;5.378;2023-05-02T16:29:03;15.90;90.60
7958;DHT22;4024;52.172;5.378;2023-05-02T16:31:29;15.90;91.00
7958;DHT22;4024;52.172;5.378;2023-05-02T16:33:54;15.90;90.70
7958;DHT22;4024;52.172;5.378;2023-05-02T16:36:20;15.90;91.40
7958;DHT22;4024;52.172;5.378;2023-05-02T16:38:45;15.90;91.10